KMQS Airport Information

Runway Information
Runway 11 Length 5400 ft width 100 ft
Elevation 639 ft Threshold ft Heading 102
Runway 29 Length 5400 ft Width 100 ft
Elevation 660 ft Threshold ft Heading 282
Airport Frequencies
Type A/D Name PHILADELPH Frequency 124.35 MHZ
Type AWOS Name AWOS 3 Frequency 126.25 MHZ
Type CLD Name CLNC DEL Frequency 125.6 MHZ
Type RDO Name WILLIAMSPO Frequency 113.2 MHZ
Type UNIC Name CTAF/UNICO Frequency 122.7 MHZ
Airport Navaids
Airport Weather Information & NOTAM
ADDS - METARS form results

(1406 UTC 05 October 2022)
Data provider http://aviationweather.gov/metar/data/
 
METAR text: KMQS 051355Z AUTO 01007G12KT 10SM OVC005 13/13 A2995 RMK AO2 P0003
Conditions at: KMQS (COATESVILLE , PA, US) observed 1355 UTC 05 October 2022
Temperature: 13.0°C (55°F)
Dewpoint: 13.0°C (55°F) [RH = 100%]
Pressure (altimeter): 29.95 inches Hg (1014.3 mb)
Winds: from the N (10 degrees) at 8 MPH (7 knots; 3.6 m/s)
gusting to 14 MPH (12 knots; 6.2 m/s)
Visibility: 10 or more miles (16+ km)
Ceiling: 500 feet AGL
Clouds: overcast cloud deck at 500 feet AGL
Weather: automated observation with no human augmentation;
there may or may not be significant weather present at this time

METAR text: KMQS 051335Z AUTO 36007KT 8SM BKN005 OVC009 13/13 A2995 RMK AO2
Conditions at: KMQS (COATESVILLE , PA, US) observed 1335 UTC 05 October 2022
Temperature: 13.0°C (55°F)
Dewpoint: 13.0°C (55°F) [RH = 100%]
Pressure (altimeter): 29.95 inches Hg (1014.3 mb)
Winds: from the N (360 degrees) at 8 MPH (7 knots; 3.6 m/s)
Visibility: 8 miles (13 km)
Ceiling: 500 feet AGL
Clouds: broken clouds at 500 feet AGL
overcast cloud deck at 900 feet AGL
Weather: automated observation with no human augmentation;
there may or may not be significant weather present at this time

METAR text: KMQS 051315Z AUTO 36006G11KT 3SM -RA BKN005 OVC010 13/13 A2995 RMK AO2
Conditions at: KMQS (COATESVILLE , PA, US) observed 1315 UTC 05 October 2022
Temperature: 13.0°C (55°F)
Dewpoint: 13.0°C (55°F) [RH = 100%]
Pressure (altimeter): 29.95 inches Hg (1014.3 mb)
Winds: from the N (360 degrees) at 7 MPH (6 knots; 3.1 m/s)
gusting to 13 MPH (11 knots; 5.7 m/s)
Visibility: 3 miles ( 5 km)
Ceiling: 500 feet AGL
Clouds: broken clouds at 500 feet AGL
overcast cloud deck at 1000 feet AGL
Weather: -RA  (light rain)